Akureyri, Iceland

5:49 AM GMT on March 30, 2015 (GMT +0000)
Akureyri | | Change Station
CLOSE
Current Station
Airport
Location: Akureyri,
Elevation: 89 ft
Nearby Weather Stations

Elev 89 ft 65.66 °N, 18.07 °W | Updated 49 minutes ago

Freezing Rain
Freezing Rain
25 °F
Feels Like 25 °F
N
0
Wind Variable Wind from North

Today
High -- | Low -- °F
--% Chance of Precip.
Yesterday
High -- | Low -- °F
Precip. -- in
6:36 AM 7:59 PM
Waxing Gibbous, 77% visible
Pressure 29.00 in
Visibility -9999.0 miles
Clouds Mostly Cloudy 1400 ft
Mostly Cloudy 2100 ft
Overcast 2400 ft
Dew Point 23 °F
Humidity 93%
Rainfall 0.00 in
Snow Depth Not available.
UV 0 out of 12
Pollen Not available.
Air Quality Not available.
Flu Activity Not available.
METAR BIAR 300500Z 00000KT 4300 -FZRA -SN BKN014 BKN021 OVC024 M04/M05 Q0982

More Conditions Fewer Conditions

Pressure 29.00 in
Visibility -9999.0 miles
Clouds Mostly Cloudy 1400 ft
Mostly Cloudy 2100 ft
Overcast 2400 ft
Dew Point 23 °F
Humidity 93%
Rainfall 0.00 in
Snow Depth Not available.
UV 0 out of 12
Pollen Not available.
Air Quality Not available.
Flu Activity Not available.
METAR BIAR 300500Z 00000KT 4300 -FZRA -SN BKN014 BKN021 OVC024 M04/M05 Q0982

More Conditions Fewer Conditions

10-Day Weather Forecast

Almanac

Astronomy

Mar. 30, 2015 Rise Set
Actual Time
Civil Twilight
Nautical Twilight
Astronomical Twilight
Moon
Length of Visible Light
Length of Day
Tomorrow will be .
, % of the Moon is Illuminated

Today's Extremes

Country Highs Country Lows

Community

WunderPhotos

Upload Photos

1,809,437 photos uploaded!

WunderBlogs® & News

Nearby

Air Quality

  Air Quality AQ Index Pollutant
Not available.

Snow Depth

Station Depth Elevation

Earthquake Activity

City Distance Mag. Time & Date
Minimum magnitude displayed is 2.5.

Coastal Water Temperatures

Place Temperature

Stations

Nearby Weather Stations

Station Location Temp. Windchill Dew Point Humidity Wind Precip. Elev Updated Type